Time;durP1;ratioP1;P1;durP2;ratioP2;P2;SDS_P1;SDS_P2;PMS_P1;PMS_P2;Temp;Humidity;BMP_temperature;BMP_pressure;BME280_temperature;BME280_humidity;BME280_pressure;Samples;Min_cycle;Max_cycle;Signal;HPM_P1;HPM_P2
2023/08/02 00:02:05;;;;;;;2.22;2.13;;;;;;;18.78;100.00;95148.09;5003612;28;20088;-66
2023/08/02 00:04:31;;;;;;;2.42;2.05;;;;;;;18.82;100.00;95132.50;5010278;28;20033;-65
2023/08/02 00:06:56;;;;;;;2.10;2.00;;;;;;;18.81;100.00;95121.00;5010806;28;20057;-65
2023/08/02 00:09:22;;;;;;;2.03;1.92;;;;;;;18.78;100.00;95109.91;4986871;28;20026;-66
2023/08/02 00:11:50;;;;;;;2.00;1.90;;;;;;;18.76;100.00;95110.16;5009049;28;20026;-65
2023/08/02 00:14:16;;;;;;;2.20;2.10;;;;;;;18.78;100.00;95133.91;5010294;28;20030;-65
2023/08/02 00:16:41;;;;;;;2.00;1.90;;;;;;;18.77;100.00;95127.78;5044556;28;20030;-65
2023/08/02 00:19:06;;;;;;;2.35;2.15;;;;;;;18.74;100.00;95120.19;5001827;28;20065;-66
2023/08/02 00:21:32;;;;;;;2.08;1.98;;;;;;;18.70;100.00;95126.97;5011017;28;20042;-65
2023/08/02 00:23:57;;;;;;;2.42;2.15;;;;;;;18.69;100.00;95136.81;5004762;28;20031;-66
2023/08/02 00:26:22;;;;;;;2.33;2.13;;;;;;;18.71;100.00;95120.63;5013574;28;20053;-66
2023/08/02 00:28:48;;;;;;;2.17;2.08;;;;;;;18.71;100.00;95107.28;5000110;28;20085;-66
2023/08/02 00:31:13;;;;;;;3.00;2.20;;;;;;;18.66;100.00;95107.91;5011550;28;20070;-65
2023/08/02 00:33:39;;;;;;;2.17;1.98;;;;;;;18.66;100.00;95123.06;5009203;28;20556;-65
2023/08/02 00:36:04;;;;;;;2.38;2.17;;;;;;;18.65;100.00;95108.94;5016184;28;20034;-65
2023/08/02 00:38:31;;;;;;;2.40;2.20;;;;;;;18.66;100.00;95101.72;5006650;28;20091;-65
2023/08/02 00:41:04;;;;;;;2.42;2.22;;;;;;;18.60;100.00;95098.06;4992865;28;20367;-65
2023/08/02 00:43:29;;;;;;;2.70;2.15;;;;;;;18.60;100.00;95092.75;5006425;28;20487;-68
2023/08/02 00:45:56;;;;;;;2.20;2.05;;;;;;;18.60;100.00;95098.88;5006050;28;21480;-65
2023/08/02 00:48:21;;;;;;;2.30;2.10;;;;;;;18.58;100.00;95100.94;5008964;28;20033;-65
2023/08/02 00:50:47;;;;;;;5.20;2.30;;;;;;;18.56;100.00;95107.47;5006488;28;20025;-65
2023/08/02 00:53:12;;;;;;;2.28;2.08;;;;;;;18.51;100.00;95099.28;5004540;28;20983;-66
2023/08/02 00:55:39;;;;;;;2.55;2.13;;;;;;;18.49;100.00;95101.34;5012912;28;20034;-66
2023/08/02 00:58:04;;;;;;;2.28;2.05;;;;;;;18.54;100.00;95089.06;4983822;28;20033;-65
2023/08/02 01:00:30;;;;;;;2.53;2.00;;;;;;;18.56;100.00;95079.00;5011199;28;20033;-65
2023/08/02 01:02:56;;;;;;;2.60;2.40;;;;;;;18.55;100.00;95074.69;5014735;28;20026;-65
2023/08/02 01:05:27;;;;;;;2.42;2.05;;;;;;;18.55;100.00;95069.38;5045475;28;20032;-65
2023/08/02 01:07:58;;;;;;;2.20;2.10;;;;;;;18.52;100.00;95074.28;5010586;28;20036;-65
2023/08/02 01:10:54;;;;;;;2.40;2.20;;;;;;;18.49;100.00;95058.72;5015764;28;20526;-65
2023/08/02 01:13:20;;;;;;;1.85;1.75;;;;;;;18.49;100.00;95054.22;5012193;28;20044;-65
2023/08/02 01:15:47;;;;;;;2.08;1.98;;;;;;;18.49;100.00;95072.03;5014224;28;20060;-65
2023/08/02 01:18:13;;;;;;;2.30;2.20;;;;;;;18.50;100.00;95025.69;5014203;28;20022;-65
2023/08/02 01:20:39;;;;;;;2.13;2.03;;;;;;;18.48;100.00;95049.91;5012707;28;20056;-65
2023/08/02 01:23:04;;;;;;;2.42;2.22;;;;;;;18.46;100.00;95047.44;5009893;28;20390;-66
2023/08/02 01:25:32;;;;;;;2.25;2.15;;;;;;;18.40;100.00;95042.94;5016431;28;20033;-65
2023/08/02 01:28:01;;;;;;;2.95;2.55;;;;;;;18.31;100.00;95014.84;5009321;28;20130;-65
2023/08/02 01:30:33;;;;;;;1.98;1.88;;;;;;;18.34;100.00;94971.81;5011404;28;20030;-65
2023/08/02 01:32:58;;;;;;;2.30;2.13;;;;;;;18.40;100.00;94970.16;5009279;28;20164;-65
2023/08/02 01:35:25;;;;;;;3.70;2.40;;;;;;;18.40;100.00;94927.53;5014511;28;20038;-65
2023/08/02 01:37:50;;;;;;;2.53;2.33;;;;;;;18.35;100.00;95000.13;5014194;28;20037;-65
2023/08/02 01:40:16;;;;;;;2.22;2.03;;;;;;;18.40;100.00;95007.47;5011180;28;20025;-66
2023/08/02 01:42:41;;;;;;;2.28;2.08;;;;;;;18.37;100.00;94998.06;5006263;28;20088;-65
2023/08/02 01:45:07;;;;;;;2.25;2.15;;;;;;;18.39;100.00;94995.16;5007384;28;20101;-65
2023/08/02 01:47:33;;;;;;;2.10;2.00;;;;;;;18.40;100.00;94994.97;4997357;28;20041;-65
2023/08/02 01:49:58;;;;;;;2.53;2.33;;;;;;;18.42;100.00;95000.09;5012692;28;20025;-65
2023/08/02 01:52:24;;;;;;;2.22;2.13;;;;;;;18.39;100.00;94995.16;5015046;28;20025;-65
2023/08/02 01:54:49;;;;;;;4.68;2.50;;;;;;;18.36;100.00;94977.78;5014142;28;20034;-65
2023/08/02 01:57:14;;;;;;;2.42;2.22;;;;;;;18.32;100.00;94963.22;5016840;28;20109;-65
2023/08/02 01:59:40;;;;;;;2.35;2.17;;;;;;;18.29;100.00;94943.16;5027323;28;20029;-65
2023/08/02 02:02:05;;;;;;;6.35;2.30;;;;;;;18.22;100.00;94883.72;5009247;28;20475;-65
2023/08/02 02:04:31;;;;;;;4.65;2.13;;;;;;;18.12;100.00;94841.53;5009952;28;20026;-66
2023/08/02 02:06:56;;;;;;;2.22;2.13;;;;;;;18.06;100.00;94805.09;5013900;28;20422;-65
2023/08/02 02:09:22;;;;;;;2.38;2.22;;;;;;;18.08;100.00;94811.03;5002698;28;20404;-65
2023/08/02 02:11:47;;;;;;;2.60;2.38;;;;;;;18.11;100.00;94865.75;5012461;28;20273;-65
2023/08/02 02:14:12;;;;;;;2.28;2.08;;;;;;;18.12;100.00;94856.72;5009811;28;20026;-65
2023/08/02 02:16:41;;;;;;;2.20;2.10;;;;;;;18.10;100.00;94777.00;5010797;28;20491;-65
2023/08/02 02:19:06;;;;;;;3.78;2.45;;;;;;;18.03;100.00;94758.44;5042592;28;20029;-65
2023/08/02 02:21:32;;;;;;;2.10;2.00;;;;;;;17.90;100.00;94801.88;5010664;28;20030;-65
2023/08/02 02:23:57;;;;;;;3.45;2.45;;;;;;;17.76;100.00;94778.97;5020696;28;20026;-65
2023/08/02 02:26:25;;;;;;;3.10;2.42;;;;;;;17.70;100.00;94700.75;5011017;28;20499;-65
2023/08/02 02:28:50;;;;;;;2.55;2.42;;;;;;;17.74;100.00;94664.69;5020748;28;20491;-66
2023/08/02 02:31:15;;;;;;;2.40;2.30;;;;;;;17.68;100.00;94617.66;5013518;28;20052;-67
2023/08/02 02:33:41;;;;;;;2.42;2.22;;;;;;;17.69;100.00;94736.38;5016716;28;20103;-65
2023/08/02 02:36:06;;;;;;;3.75;2.72;;;;;;;17.72;100.00;94741.28;5012928;28;20022;-65
2023/08/02 02:38:32;;;;;;;2.33;2.13;;;;;;;17.70;100.00;94660.03;5012378;28;20053;-65
2023/08/02 02:40:57;;;;;;;2.45;2.03;;;;;;;17.61;100.00;94443.91;5009405;28;20025;-68
2023/08/02 02:43:22;;;;;;;3.30;2.17;;;;;;;17.57;100.00;94411.59;5013135;28;20030;-65
2023/08/02 02:45:48;;;;;;;2.60;2.40;;;;;;;17.56;100.00;94680.53;5001294;28;20054;-67
2023/08/02 02:48:13;;;;;;;2.72;2.53;;;;;;;17.55;100.00;94645.16;5007933;28;20572;-67
2023/08/02 02:50:39;;;;;;;2.33;2.10;;;;;;;17.52;100.00;94559.59;5007545;28;20130;-67
2023/08/02 02:53:04;;;;;;;2.25;2.05;;;;;;;17.52;100.00;94298.84;5013571;28;20037;-67
2023/08/02 02:55:30;;;;;;;2.55;2.28;;;;;;;17.58;100.00;94255.44;5004423;28;20026;-68
2023/08/02 02:57:55;;;;;;;2.85;2.25;;;;;;;17.56;100.00;94258.28;5011671;28;20100;-67
2023/08/02 03:00:20;;;;;;;2.60;2.40;;;;;;;17.57;100.00;94285.69;5014413;28;20053;-68
2023/08/02 03:02:46;;;;;;;2.72;2.47;;;;;;;17.58;100.00;94548.13;5011192;28;20034;-68
2023/08/02 03:05:11;;;;;;;2.65;2.25;;;;;;;17.58;100.00;94643.91;5010527;28;20030;-67
2023/08/02 03:07:36;;;;;;;3.83;2.35;;;;;;;17.45;100.00;94629.63;5008564;28;20030;-67
2023/08/02 03:10:02;;;;;;;3.17;2.80;;;;;;;17.39;100.00;94524.06;5006960;28;20022;-67
2023/08/02 03:12:27;;;;;;;2.75;2.55;;;;;;;17.48;100.00;94317.13;5010529;28;20029;-68
2023/08/02 03:14:53;;;;;;;2.72;2.40;;;;;;;17.53;100.00;94297.81;5012667;28;20017;-67
2023/08/02 03:17:18;;;;;;;2.55;2.45;;;;;;;17.47;100.00;94275.59;5021747;28;20030;-67
2023/08/02 03:19:43;;;;;;;3.67;2.35;;;;;;;17.48;100.00;94258.59;5009712;28;20057;-67
2023/08/02 03:22:09;;;;;;;2.55;2.35;;;;;;;17.54;100.00;94248.91;5009473;28;20030;-67
2023/08/02 03:24:34;;;;;;;2.38;2.08;;;;;;;17.54;100.00;94270.19;5012592;28;20663;-68
2023/08/02 03:27:00;;;;;;;2.88;2.67;;;;;;;17.51;100.00;94283.94;5011625;28;20108;-68
2023/08/02 03:29:25;;;;;;;2.58;2.38;;;;;;;17.58;100.00;94276.72;5004914;28;20061;-67
2023/08/02 03:31:51;;;;;;;2.42;2.20;;;;;;;17.64;100.00;94286.47;5024782;28;20060;-67
2023/08/02 03:34:16;;;;;;;3.80;2.80;;;;;;;17.64;100.00;94293.63;5017701;28;20053;-67
2023/08/02 03:36:42;;;;;;;2.50;2.30;;;;;;;17.62;100.00;94299.19;5013373;28;20071;-68
2023/08/02 03:39:08;;;;;;;2.60;2.40;;;;;;;17.60;100.00;94271.97;5001560;28;20034;-68
2023/08/02 03:41:34;;;;;;;2.28;2.15;;;;;;;17.58;100.00;94276.72;5011527;28;20037;-67
2023/08/02 03:44:01;;;;;;;2.67;2.47;;;;;;;17.60;100.00;94254.16;5010195;28;20030;-67
2023/08/02 03:46:27;;;;;;;2.60;2.40;;;;;;;17.63;100.00;94236.94;5005639;28;20045;-67
2023/08/02 03:48:52;;;;;;;5.28;2.28;;;;;;;17.65;100.00;94207.44;5011646;28;20478;-68
2023/08/02 03:51:18;;;;;;;3.05;2.33;;;;;;;17.62;100.00;94179.44;5013345;28;20029;-67
2023/08/02 03:53:43;;;;;;;2.40;2.20;;;;;;;17.58;100.00;94175.59;5012451;28;20472;-68
2023/08/02 03:56:08;;;;;;;2.70;2.50;;;;;;;17.57;100.00;94152.66;5012638;28;20052;-67
2023/08/02 03:58:34;;;;;;;3.00;2.50;;;;;;;17.57;100.00;94152.66;5026520;28;20038;-68
2023/08/02 04:01:00;;;;;;;4.22;2.28;;;;;;;17.58;100.00;94167.63;5042161;28;20084;-67
2023/08/02 04:03:25;;;;;;;2.60;2.40;;;;;;;17.59;100.00;94164.72;5008585;28;20030;-68
2023/08/02 04:05:50;;;;;;;2.42;2.10;;;;;;;17.63;100.00;94150.97;5004171;28;20031;-67
2023/08/02 04:08:16;;;;;;;2.60;2.40;;;;;;;17.64;100.00;94141.94;5012098;28;20040;-65
2023/08/02 04:10:41;;;;;;;3.47;2.92;;;;;;;17.64;100.00;94120.66;5008661;28;20080;-68
2023/08/02 04:13:07;;;;;;;3.45;2.75;;;;;;;17.64;100.00;94105.53;4988837;28;20056;-67
2023/08/02 04:15:33;;;;;;;3.92;2.47;;;;;;;17.61;100.00;94082.81;5009699;28;20030;-67
2023/08/02 04:17:59;;;;;;;2.42;2.22;;;;;;;17.60;100.00;94061.78;5003071;28;20022;-67
2023/08/02 04:20:25;;;;;;;2.53;2.33;;;;;;;17.53;100.00;94061.88;5004862;28;20033;-68
2023/08/02 04:22:53;;;;;;;2.70;2.50;;;;;;;17.51;100.00;94071.09;4992321;28;20418;-68
2023/08/02 04:25:18;;;;;;;2.83;2.35;;;;;;;17.45;100.00;94041.69;5005852;28;20030;-68
2023/08/02 04:27:47;;;;;;;3.05;2.65;;;;;;;17.39;100.00;94024.00;5015767;28;20062;-68
2023/08/02 04:30:12;;;;;;;2.88;2.40;;;;;;;17.36;100.00;94013.81;5023473;28;20034;-68
2023/08/02 04:32:38;;;;;;;2.63;2.45;;;;;;;17.31;100.00;93993.19;5007952;28;20040;-67
2023/08/02 04:35:03;;;;;;;2.67;2.50;;;;;;;17.30;100.00;93964.16;5016992;28;20101;-67
2023/08/02 04:37:29;;;;;;;2.60;2.40;;;;;;;17.24;100.00;93973.06;5047824;28;20028;-67
2023/08/02 04:39:54;;;;;;;2.58;2.38;;;;;;;17.14;100.00;93899.97;5013449;28;20037;-67
2023/08/02 04:42:20;;;;;;;2.80;2.50;;;;;;;17.10;100.00;93866.06;5015070;28;20034;-68
2023/08/02 04:44:45;;;;;;;4.38;2.67;;;;;;;17.02;100.00;93744.94;5014031;28;20110;-68
2023/08/02 04:47:11;;;;;;;4.22;3.13;;;;;;;16.97;100.00;93721.66;5014074;28;20026;-67
2023/08/02 04:49:36;;;;;;;2.72;2.53;;;;;;;16.93;100.00;93685.16;5043224;28;20809;-67
2023/08/02 04:52:02;;;;;;;2.70;2.53;;;;;;;16.88;100.00;93656.63;5012698;28;20030;-67
2023/08/02 04:54:27;;;;;;;2.80;2.60;;;;;;;16.85;100.00;93636.63;5016498;28;20026;-68
2023/08/02 04:56:53;;;;;;;5.63;2.75;;;;;;;16.75;100.00;93613.28;5027935;28;20022;-68
2023/08/02 04:59:18;;;;;;;3.22;2.45;;;;;;;16.75;100.00;93573.44;5016502;28;20112;-67
2023/08/02 05:01:44;;;;;;;4.05;2.60;;;;;;;16.75;100.00;93562.81;5016859;28;20509;-67
2023/08/02 05:04:09;;;;;;;2.95;2.75;;;;;;;16.73;100.00;93580.03;5016022;28;20112;-68
2023/08/02 05:06:35;;;;;;;2.92;2.70;;;;;;;16.72;100.00;93573.09;5002450;28;20036;-67
2023/08/02 05:09:04;;;;;;;3.35;2.42;;;;;;;16.71;100.00;93566.97;5016531;28;20041;-68
2023/08/02 05:11:33;;;;;;;2.70;2.50;;;;;;;16.68;100.00;93540.03;5015241;28;20033;-67
2023/08/02 05:13:58;;;;;;;3.30;2.80;;;;;;;16.65;100.00;93524.56;5016443;28;20391;-67
2023/08/02 05:16:25;;;;;;;4.47;2.58;;;;;;;16.65;100.00;93482.91;5016530;28;20077;-67
2023/08/02 05:18:51;;;;;;;6.03;2.67;;;;;;;16.63;100.00;93446.97;5022347;28;20031;-67
2023/08/02 05:21:18;;;;;;;2.97;2.78;;;;;;;16.66;100.00;93433.22;5016321;28;20040;-67
2023/08/02 05:23:44;;;;;;;2.78;2.58;;;;;;;16.68;100.00;93408.03;5016294;28;20034;-68
2023/08/02 05:26:09;;;;;;;2.88;2.55;;;;;;;16.78;100.00;93419.91;5018688;28;20529;-68
2023/08/02 05:28:36;;;;;;;2.60;2.40;;;;;;;16.92;100.00;93461.09;5016072;28;20073;-68
2023/08/02 05:31:02;;;;;;;3.78;2.78;;;;;;;17.02;100.00;93487.94;5015745;28;20022;-67
2023/08/02 05:33:28;;;;;;;3.08;2.88;;;;;;;17.11;100.00;93484.88;5024216;28;20036;-67
2023/08/02 05:35:53;;;;;;;4.50;2.88;;;;;;;17.15;100.00;93510.78;5015831;28;20068;-67
2023/08/02 05:38:18;;;;;;;2.95;2.10;;;;;;;17.14;100.00;93535.75;5016194;28;20060;-68
2023/08/02 05:40:44;;;;;;;2.83;2.63;;;;;;;17.07;100.00;93521.75;5014615;28;20041;-68
2023/08/02 05:43:10;;;;;;;3.05;2.80;;;;;;;17.10;100.00;93515.97;5014799;28;20034;-67
2023/08/02 05:45:35;;;;;;;5.70;2.67;;;;;;;17.09;100.00;93532.97;5015568;28;20430;-67
2023/08/02 05:48:01;;;;;;;3.13;2.83;;;;;;;17.06;100.00;93524.66;5015907;28;20052;-68
2023/08/02 05:50:28;;;;;;;3.55;2.90;;;;;;;17.00;100.00;93518.44;5016089;28;20498;-67
2023/08/02 05:52:54;;;;;;;3.00;2.80;;;;;;;16.94;100.00;93501.53;5015948;28;20057;-67
2023/08/02 05:55:20;;;;;;;3.05;2.80;;;;;;;16.89;100.00;93483.63;5015644;28;20034;-68
2023/08/02 05:57:45;;;;;;;3.20;2.88;;;;;;;16.86;100.00;93467.38;5014142;28;20525;-68
2023/08/02 06:00:11;;;;;;;3.08;2.88;;;;;;;16.88;100.00;93431.53;5015281;28;20457;-67
2023/08/02 06:02:38;;;;;;;2.88;2.67;;;;;;;16.93;100.00;93406.91;5006755;28;20122;-68
2023/08/02 06:05:04;;;;;;;6.93;3.30;;;;;;;17.01;100.00;93389.81;5015125;28;20073;-68
2023/08/02 06:07:29;;;;;;;3.25;2.95;;;;;;;17.09;100.00;93370.81;5015742;28;20025;-68
2023/08/02 06:09:55;;;;;;;3.47;2.28;;;;;;;17.16;100.00;93363.50;5015512;28;20040;-67
2023/08/02 06:12:20;;;;;;;6.47;3.15;;;;;;;17.30;100.00;93365.84;5015082;28;20068;-68
2023/08/02 06:14:45;;;;;;;3.13;2.92;;;;;;;17.40;100.00;93413.06;5013730;28;20025;-67
2023/08/02 06:17:11;;;;;;;3.03;2.72;;;;;;;17.46;100.00;93444.84;5030569;28;20029;-67
2023/08/02 06:19:36;;;;;;;3.42;3.13;;;;;;;17.54;100.00;93418.88;5014278;28;20025;-67
2023/08/02 06:22:02;;;;;;;2.72;2.50;;;;;;;17.62;100.00;93447.75;5014454;28;20026;-67
2023/08/02 06:24:27;;;;;;;3.85;3.17;;;;;;;17.69;100.00;93480.34;5015141;28;20613;-67
2023/08/02 06:26:52;;;;;;;3.05;2.70;;;;;;;17.73;100.00;93501.97;5014862;28;20601;-67
2023/08/02 06:29:18;;;;;;;3.38;3.08;;;;;;;17.79;100.00;93530.25;5014681;28;20037;-67
2023/08/02 06:31:43;;;;;;;4.63;2.90;;;;;;;17.94;100.00;93537.69;5001144;28;20038;-67
2023/08/02 06:34:09;;;;;;;2.97;2.78;;;;;;;18.07;100.00;93571.22;5023018;28;20089;-67
2023/08/02 06:36:38;;;;;;;3.10;2.80;;;;;;;18.28;100.00;93614.16;5030115;28;20077;-67
2023/08/02 06:39:03;;;;;;;3.05;2.45;;;;;;;18.42;100.00;93675.91;5014510;28;20430;-67
2023/08/02 06:41:29;;;;;;;4.18;3.10;;;;;;;18.55;100.00;93712.91;5015062;28;20034;-67
2023/08/02 06:43:54;;;;;;;2.72;2.60;;;;;;;18.65;100.00;93722.13;5014770;28;20064;-67
2023/08/02 06:46:19;;;;;;;3.22;2.92;;;;;;;18.70;100.00;93736.34;5014666;28;20033;-67
2023/08/02 06:48:45;;;;;;;3.20;2.75;;;;;;;18.72;100.00;93768.91;5015028;28;20025;-67
2023/08/02 06:51:12;;;;;;;3.97;3.10;;;;;;;18.83;100.00;93772.56;5014512;28;20033;-67
2023/08/02 06:53:37;;;;;;;4.10;2.67;;;;;;;19.05;100.00;93779.88;5013566;28;20073;-67
2023/08/02 06:56:13;;;;;;;3.10;2.90;;;;;;;19.20;100.00;93784.63;5014392;28;20553;-67
2023/08/02 06:58:39;;;;;;;3.10;2.90;;;;;;;19.36;100.00;93806.22;5014340;28;20018;-67
2023/08/02 07:01:15;;;;;;;2.45;2.33;;;;;;;19.51;100.00;93822.47;5013007;28;20026;-67
2023/08/02 07:03:41;;;;;;;3.20;2.70;;;;;;;19.78;100.00;93927.75;5014106;28;20034;-67
2023/08/02 07:06:10;;;;;;;2.97;2.70;;;;;;;20.24;100.00;94011.34;5013915;28;20025;-67
2023/08/02 07:08:37;;;;;;;3.20;2.50;;;;;;;20.56;100.00;94114.16;5014775;28;20509;-67
2023/08/02 07:11:03;;;;;;;2.78;2.58;;;;;;;20.58;100.00;94171.66;5014411;28;20109;-67
2023/08/02 07:13:29;;;;;;;3.65;2.88;;;;;;;20.63;100.00;94175.47;5044902;28;20513;-68
2023/08/02 07:15:54;;;;;;;4.00;2.80;;;;;;;20.64;100.00;94215.34;5013581;28;20026;-66
2023/08/02 07:18:20;;;;;;;2.88;2.70;;;;;;;20.55;100.00;94272.91;5045400;28;20498;-66
2023/08/02 07:20:45;;;;;;;4.78;2.80;;;;;;;20.47;100.00;94293.63;5045268;28;20025;-65
2023/08/02 07:23:11;;;;;;;3.25;2.65;;;;;;;20.42;100.00;94272.16;5013936;28;20025;-65
2023/08/02 07:25:36;;;;;;;2.60;2.42;;;;;;;20.93;100.00;94284.06;5013242;28;20022;-65
2023/08/02 07:28:01;;;;;;;2.80;2.60;;;;;;;21.17;100.00;94323.00;5013316;28;20046;-66
2023/08/02 07:30:27;;;;;;;2.70;2.50;;;;;;;20.93;100.00;94383.81;5013725;28;20034;-65
2023/08/02 07:32:52;;;;;;;3.42;2.55;;;;;;;20.82;100.00;94396.19;4996601;28;20022;-65
2023/08/02 07:35:18;;;;;;;2.60;2.40;;;;;;;20.54;100.00;94416.47;5013035;28;20037;-66
2023/08/02 07:37:43;;;;;;;2.50;2.40;;;;;;;20.42;100.00;94354.19;4996320;28;20028;-65
2023/08/02 07:40:09;;;;;;;2.95;2.75;;;;;;;20.49;100.00;94376.28;5011725;28;20018;-65
2023/08/02 07:42:34;;;;;;;3.25;2.92;;;;;;;20.91;100.00;94350.34;5005722;28;20057;-65
2023/08/02 07:45:05;;;;;;;2.95;2.75;;;;;;;21.63;100.00;94398.91;5012191;28;20021;-65
2023/08/02 07:47:32;;;;;;;3.00;2.80;;;;;;;22.54;100.00;94494.41;5013581;28;20430;-65
2023/08/02 07:49:57;;;;;;;2.70;2.45;;;;;;;23.21;100.00;94572.31;5013891;28;20030;-65
2023/08/02 07:52:22;;;;;;;2.38;2.28;;;;;;;23.35;100.00;94610.38;5013376;28;20041;-65
2023/08/02 07:54:48;;;;;;;3.00;2.47;;;;;;;23.65;100.00;94675.44;5013277;28;20478;-66
2023/08/02 07:57:13;;;;;;;2.78;2.55;;;;;;;23.89;100.00;94735.16;5012340;28;20033;-66
2023/08/02 07:59:39;;;;;;;2.50;2.30;;;;;;;24.26;100.00;94777.56;5016107;28;20487;-66
2023/08/02 08:02:04;;;;;;;2.17;2.08;;;;;;;24.51;100.00;94773.53;5018239;28;20046;-66
2023/08/02 08:04:29;;;;;;;2.75;2.50;;;;;;;25.11;100.00;94816.69;5016620;28;20057;-66
2023/08/02 08:06:55;;;;;;;2.40;2.20;;;;;;;25.25;100.00;94827.03;5023821;28;20419;-66
2023/08/02 08:09:23;;;;;;;3.33;2.45;;;;;;;25.40;100.00;94818.25;5025407;28;21244;-66
2023/08/02 08:11:50;;;;;;;5.03;2.30;;;;;;;25.51;100.00;94829.94;5045518;28;20022;-66
2023/08/02 08:14:15;;;;;;;2.22;2.10;;;;;;;25.82;100.00;94825.59;5020067;28;20087;-66
2023/08/02 08:16:40;;;;;;;3.75;2.00;;;;;;;25.78;100.00;94888.38;5025337;28;20013;-66
2023/08/02 08:19:06;;;;;;;3.40;2.35;;;;;;;25.04;100.00;94896.84;5022392;28;20035;-66
2023/08/02 08:21:31;;;;;;;2.35;2.15;;;;;;;24.42;100.00;94888.00;5030846;28;20572;-65
2023/08/02 08:23:57;;;;;;;2.05;1.95;;;;;;;24.26;100.00;94895.06;5020638;28;20030;-66
2023/08/02 08:26:23;;;;;;;2.20;1.98;;;;;;;24.00;100.00;94879.38;5021660;28;20029;-65
2023/08/02 08:28:49;;;;;;;4.70;2.30;;;;;;;23.35;100.00;94867.31;5025513;28;20534;-65
2023/08/02 08:31:14;;;;;;;2.47;2.28;;;;;;;23.08;100.00;94881.34;5022076;28;20033;-66
2023/08/02 08:33:39;;;;;;;2.53;2.38;;;;;;;22.78;100.00;94893.13;5021885;28;20025;-66
2023/08/02 08:36:12;;;;;;;2.40;2.22;;;;;;;22.35;100.00;94887.97;5014519;28;20101;-65
2023/08/02 08:38:38;;;;;;;2.65;2.40;;;;;;;22.26;100.00;94887.50;5021743;28;20026;-65
2023/08/02 08:41:03;;;;;;;5.70;2.33;;;;;;;22.09;100.00;94873.97;5021232;28;20028;-66
2023/08/02 08:43:29;;;;;;;2.45;2.35;;;;;;;22.23;100.00;94887.97;5024952;28;20048;-65
2023/08/02 08:45:56;;;;;;;3.67;2.05;;;;;;;22.18;100.00;94863.72;5024652;28;20026;-66
2023/08/02 08:48:22;;;;;;;2.20;2.10;;;;;;;22.10;100.00;94893.56;5023744;28;20052;-66
2023/08/02 08:50:50;;;;;;;6.07;2.20;;;;;;;21.97;100.00;94879.34;5018627;28;20049;-66
2023/08/02 08:53:22;;;;;;;2.38;2.00;;;;;;;21.82;100.00;94866.44;5023632;28;20498;-66
2023/08/02 08:55:49;;;;;;;2.53;2.13;;;;;;;21.73;100.00;94854.44;5020674;28;20065;-66
2023/08/02 08:58:16;;;;;;;2.42;2.22;;;;;;;21.64;100.00;94829.84;5021978;28;20499;-65
2023/08/02 09:00:43;;;;;;;3.20;2.35;;;;;;;21.65;100.00;94855.59;5026490;28;20034;-65
2023/08/02 09:03:10;;;;;;;5.00;2.30;;;;;;;21.68;100.00;94889.16;5018102;28;20659;-66
2023/08/02 09:05:36;;;;;;;2.60;2.40;;;;;;;21.61;100.00;94900.75;5021912;28;20033;-66
2023/08/02 09:08:04;;;;;;;3.15;2.63;;;;;;;21.67;100.00;94911.63;5023548;28;20017;-66
2023/08/02 09:10:29;;;;;;;2.60;2.38;;;;;;;21.67;100.00;94920.47;5018518;28;20021;-65
2023/08/02 09:12:54;;;;;;;2.53;2.38;;;;;;;21.48;100.00;94906.31;5022521;28;20025;-66
2023/08/02 09:15:20;;;;;;;2.72;2.53;;;;;;;21.43;100.00;94858.81;5021567;28;20079;-66
2023/08/02 09:17:50;;;;;;;2.13;2.03;;;;;;;21.31;100.00;94825.84;5023472;28;20103;-66
2023/08/02 09:20:17;;;;;;;3.42;2.40;;;;;;;21.38;100.00;94798.97;5020924;28;20094;-66
2023/08/02 09:22:42;;;;;;;4.65;2.38;;;;;;;21.35;100.00;94794.09;5020653;28;20453;-70
2023/08/02 09:25:28;;;;;;;4.93;2.60;;;;;;;21.43;100.00;94804.44;5020576;28;20038;-70
2023/08/02 09:27:55;;;;;;;2.88;2.63;;;;;;;21.45;100.00;94832.63;5021685;28;20045;-69
2023/08/02 09:30:34;;;;;;;4.60;2.55;;;;;;;21.44;100.00;94832.84;5023555;28;20112;-69
2023/08/02 09:33:02;;;;;;;3.20;2.53;;;;;;;21.54;100.00;94845.66;5022516;28;20096;-69
2023/08/02 09:35:31;;;;;;;3.50;2.45;;;;;;;21.59;100.00;94854.63;5023839;28;20056;-70
2023/08/02 09:37:56;;;;;;;2.70;2.50;;;;;;;21.62;100.00;94864.06;5022325;28;20519;-68
2023/08/02 09:40:35;;;;;;;2.80;2.60;;;;;;;21.50;100.00;94871.28;5022564;28;20021;-67
2023/08/02 09:43:02;;;;;;;2.70;2.38;;;;;;;21.45;100.00;94867.44;5021682;28;20023;-67
2023/08/02 09:45:32;;;;;;;2.67;2.47;;;;;;;21.75;100.00;94844.31;5018649;28;20060;-67
2023/08/02 09:47:58;;;;;;;4.38;2.50;;;;;;;22.53;100.00;94867.41;5021853;28;20056;-68
2023/08/02 09:50:23;;;;;;;2.60;2.40;;;;;;;23.30;100.00;94909.16;5020901;28;20022;-68
2023/08/02 09:52:49;;;;;;;4.95;2.90;;;;;;;23.70;100.00;94955.75;5020098;28;20021;-68
2023/08/02 09:55:14;;;;;;;3.65;3.03;;;;;;;24.37;100.00;94984.78;5043428;28;20105;-67
2023/08/02 09:57:43;;;;;;;2.83;2.60;;;;;;;25.15;100.00;95037.78;5019053;28;20018;-67
2023/08/02 10:00:10;;;;;;;3.75;2.60;;;;;;;25.82;100.00;95043.16;5022513;28;20526;-65
2023/08/02 10:02:36;;;;;;;2.67;2.47;;;;;;;26.27;100.00;95041.13;5020437;28;20061;-65
2023/08/02 10:05:04;;;;;;;4.53;2.45;;;;;;;26.82;100.00;95060.69;5022101;28;20053;-64
2023/08/02 10:07:42;;;;;;;2.60;2.42;;;;;;;27.29;100.00;95050.16;5015928;28;20022;-66
2023/08/02 10:10:30;;;;;;;2.88;2.70;;;;;;;27.54;100.00;95065.69;5017352;28;20025;-65
2023/08/02 10:13:01;;;;;;;2.53;2.38;;;;;;;27.20;100.00;95066.06;5018850;28;20017;-66
2023/08/02 10:15:27;;;;;;;2.90;2.60;;;;;;;27.57;100.00;95067.84;5021757;28;20504;-67
2023/08/02 10:17:54;;;;;;;3.67;2.30;;;;;;;27.85;100.00;95067.66;5019757;28;20018;-66
2023/08/02 10:20:20;;;;;;;2.60;2.15;;;;;;;28.24;100.00;95075.31;5017743;28;20022;-66
2023/08/02 10:22:47;;;;;;;2.63;2.42;;;;;;;28.49;100.00;95078.28;5022920;28;20029;-66
2023/08/02 10:25:15;;;;;;;3.05;2.55;;;;;;;28.40;100.00;95088.84;5016830;28;20034;-66
2023/08/02 10:27:42;;;;;;;2.55;2.20;;;;;;;28.58;100.00;95088.31;4987622;28;20049;-66
2023/08/02 10:30:08;;;;;;;2.45;2.30;;;;;;;28.92;100.00;95075.31;5019517;28;20099;-66
2023/08/02 10:32:34;;;;;;;3.83;2.30;;;;;;;29.04;100.00;95070.41;5004372;28;20038;-66
2023/08/02 10:34:59;;;;;;;2.40;2.20;;;;;;;29.21;100.00;95066.56;5022853;28;20632;-66
2023/08/02 10:37:52;;;;;;;2.53;2.17;;;;;;;29.27;100.00;95068.16;5020299;28;20037;-66
2023/08/02 10:40:21;;;;;;;2.25;2.08;;;;;;;29.31;100.00;95061.13;5018766;28;20072;-66
2023/08/02 10:43:07;;;;;;;2.65;2.10;;;;;;;29.10;100.00;95050.34;5018953;28;20048;-65
2023/08/02 10:45:33;;;;;;;2.58;2.42;;;;;;;29.59;100.00;95043.38;5017391;28;20025;-66
2023/08/02 10:48:25;;;;;;;2.33;2.13;;;;;;;29.93;100.00;95030.19;5018675;28;20029;-66
2023/08/02 10:50:51;;;;;;;3.58;2.28;;;;;;;29.71;100.00;95039.53;5021161;28;20059;-66
2023/08/02 10:53:16;;;;;;;2.10;2.00;;;;;;;29.38;100.00;95031.81;5019337;28;20038;-66
2023/08/02 10:56:01;;;;;;;2.33;2.17;;;;;;;29.56;100.00;95027.69;5017748;28;20030;-66
2023/08/02 10:58:27;;;;;;;2.55;2.45;;;;;;;30.07;100.00;95014.94;5017706;28;20418;-66
2023/08/02 11:01:10;;;;;;;2.50;2.30;;;;;;;30.64;100.00;95013.66;5049461;28;20021;-66
2023/08/02 11:03:37;;;;;;;2.10;2.00;;;;;;;31.01;100.00;95023.84;5019440;28;20036;-65
2023/08/02 11:06:03;;;;;;;2.20;2.10;;;;;;;31.30;100.00;95022.19;5022260;28;20070;-66
2023/08/02 11:08:28;;;;;;;2.22;2.03;;;;;;;31.69;100.00;95014.88;5018789;28;20024;-66
2023/08/02 11:10:55;;;;;;;2.20;2.10;;;;;;;31.88;100.00;95006.75;5027207;28;20100;-66
2023/08/02 11:13:22;;;;;;;2.10;2.00;;;;;;;32.05;100.00;95008.94;5018194;28;20022;-66
2023/08/02 11:16:09;;;;;;;1.98;1.92;;;;;;;32.33;100.00;95013.69;5019317;28;20022;-66
2023/08/02 11:18:34;;;;;;;2.15;2.05;;;;;;;32.77;100.00;94997.97;5015035;28;20032;-66
2023/08/02 11:21:07;;;;;;;2.30;2.10;;;;;;;32.76;100.00;94994.44;5017063;28;20026;-66
2023/08/02 11:23:33;;;;;;;2.25;2.13;;;;;;;32.57;100.00;94997.22;5018788;28;20029;-66